sensor_id;sensor_type;location;lat;lon;timestamp;P1;durP1;ratioP1;P2;durP2;ratioP2
17650;SDS011;26663;59.302;18.082;2024-01-30T00:00:52;20.27;;;9.17;;
17650;SDS011;26663;59.302;18.082;2024-01-30T00:03:56;28.00;;;9.23;;
17650;SDS011;26663;59.302;18.082;2024-01-30T00:07:00;27.57;;;9.33;;
17650;SDS011;26663;59.302;18.082;2024-01-30T00:10:04;20.63;;;9.00;;
17650;SDS011;26663;59.302;18.082;2024-01-30T00:13:11;26.23;;;9.33;;
17650;SDS011;26663;59.302;18.082;2024-01-30T00:16:20;29.63;;;10.37;;
17650;SDS011;26663;59.302;18.082;2024-01-30T00:19:24;25.20;;;10.00;;
17650;SDS011;26663;59.302;18.082;2024-01-30T00:22:28;29.07;;;9.53;;
17650;SDS011;26663;59.302;18.082;2024-01-30T00:25:32;24.63;;;9.67;;
17650;SDS011;26663;59.302;18.082;2024-01-30T00:28:38;19.27;;;8.53;;
17650;SDS011;26663;59.302;18.082;2024-01-30T00:31:42;20.77;;;8.67;;
17650;SDS011;26663;59.302;18.082;2024-01-30T00:34:46;26.37;;;8.93;;
17650;SDS011;26663;59.302;18.082;2024-01-30T00:37:50;24.73;;;8.60;;
17650;SDS011;26663;59.302;18.082;2024-01-30T00:40:54;25.00;;;8.17;;
17650;SDS011;26663;59.302;18.082;2024-01-30T00:43:59;19.23;;;8.53;;
17650;SDS011;26663;59.302;18.082;2024-01-30T00:47:03;27.93;;;9.30;;
17650;SDS011;26663;59.302;18.082;2024-01-30T00:50:08;21.07;;;8.50;;
17650;SDS011;26663;59.302;18.082;2024-01-30T00:53:12;21.37;;;8.97;;
17650;SDS011;26663;59.302;18.082;2024-01-30T00:56:16;17.40;;;7.93;;
17650;SDS011;26663;59.302;18.082;2024-01-30T00:59:22;17.60;;;8.10;;
17650;SDS011;26663;59.302;18.082;2024-01-30T01:02:27;26.03;;;8.97;;
17650;SDS011;26663;59.302;18.082;2024-01-30T01:05:30;19.47;;;8.73;;
17650;SDS011;26663;59.302;18.082;2024-01-30T01:08:34;23.93;;;9.03;;
17650;SDS011;26663;59.302;18.082;2024-01-30T01:11:39;25.03;;;9.63;;
17650;SDS011;26663;59.302;18.082;2024-01-30T01:14:44;22.17;;;8.87;;
17650;SDS011;26663;59.302;18.082;2024-01-30T01:17:48;18.73;;;8.73;;
17650;SDS011;26663;59.302;18.082;2024-01-30T01:20:52;21.07;;;8.33;;
17650;SDS011;26663;59.302;18.082;2024-01-30T01:23:56;19.73;;;8.47;;
17650;SDS011;26663;59.302;18.082;2024-01-30T01:27:00;22.47;;;8.63;;
17650;SDS011;26663;59.302;18.082;2024-01-30T01:30:06;25.23;;;8.50;;
17650;SDS011;26663;59.302;18.082;2024-01-30T01:33:12;29.37;;;9.50;;
17650;SDS011;26663;59.302;18.082;2024-01-30T01:36:17;26.30;;;9.27;;
17650;SDS011;26663;59.302;18.082;2024-01-30T01:39:22;21.37;;;8.57;;
17650;SDS011;26663;59.302;18.082;2024-01-30T01:42:26;19.50;;;8.10;;
17650;SDS011;26663;59.302;18.082;2024-01-30T01:45:31;22.50;;;8.00;;
17650;SDS011;26663;59.302;18.082;2024-01-30T01:48:35;32.80;;;9.10;;
17650;SDS011;26663;59.302;18.082;2024-01-30T01:51:42;27.40;;;8.73;;
17650;SDS011;26663;59.302;18.082;2024-01-30T01:54:47;21.20;;;8.40;;
17650;SDS011;26663;59.302;18.082;2024-01-30T01:57:51;23.10;;;9.00;;
17650;SDS011;26663;59.302;18.082;2024-01-30T02:00:58;19.07;;;8.67;;
17650;SDS011;26663;59.302;18.082;2024-01-30T02:04:03;23.80;;;8.47;;
17650;SDS011;26663;59.302;18.082;2024-01-30T02:07:08;25.20;;;9.03;;
17650;SDS011;26663;59.302;18.082;2024-01-30T02:10:12;27.57;;;9.77;;
17650;SDS011;26663;59.302;18.082;2024-01-30T02:13:17;27.63;;;9.43;;
17650;SDS011;26663;59.302;18.082;2024-01-30T02:16:22;22.63;;;9.17;;
17650;SDS011;26663;59.302;18.082;2024-01-30T02:19:26;27.73;;;9.57;;
17650;SDS011;26663;59.302;18.082;2024-01-30T02:22:31;17.97;;;8.80;;
17650;SDS011;26663;59.302;18.082;2024-01-30T02:25:38;23.07;;;8.63;;
17650;SDS011;26663;59.302;18.082;2024-01-30T02:28:46;21.83;;;9.20;;
17650;SDS011;26663;59.302;18.082;2024-01-30T02:31:50;19.93;;;8.93;;
17650;SDS011;26663;59.302;18.082;2024-01-30T02:34:54;23.60;;;9.40;;
17650;SDS011;26663;59.302;18.082;2024-01-30T02:38:00;22.50;;;9.20;;
17650;SDS011;26663;59.302;18.082;2024-01-30T02:41:04;24.70;;;9.60;;
17650;SDS011;26663;59.302;18.082;2024-01-30T02:44:08;20.73;;;8.87;;
17650;SDS011;26663;59.302;18.082;2024-01-30T02:47:12;22.57;;;9.43;;
17650;SDS011;26663;59.302;18.082;2024-01-30T02:50:16;19.57;;;8.77;;
17650;SDS011;26663;59.302;18.082;2024-01-30T02:53:21;24.53;;;8.87;;
17650;SDS011;26663;59.302;18.082;2024-01-30T02:56:25;26.87;;;9.90;;
17650;SDS011;26663;59.302;18.082;2024-01-30T02:59:29;22.70;;;10.47;;
17650;SDS011;26663;59.302;18.082;2024-01-30T03:02:35;21.70;;;9.67;;
17650;SDS011;26663;59.302;18.082;2024-01-30T03:05:39;21.97;;;9.50;;
17650;SDS011;26663;59.302;18.082;2024-01-30T03:08:44;23.80;;;9.97;;
17650;SDS011;26663;59.302;18.082;2024-01-30T03:11:49;22.30;;;10.23;;
17650;SDS011;26663;59.302;18.082;2024-01-30T03:14:52;27.00;;;10.50;;
17650;SDS011;26663;59.302;18.082;2024-01-30T03:17:56;22.43;;;9.53;;
17650;SDS011;26663;59.302;18.082;2024-01-30T03:21:01;21.47;;;9.87;;
17650;SDS011;26663;59.302;18.082;2024-01-30T03:24:07;25.40;;;10.00;;
17650;SDS011;26663;59.302;18.082;2024-01-30T03:27:11;30.80;;;10.33;;
17650;SDS011;26663;59.302;18.082;2024-01-30T03:30:15;21.00;;;9.83;;
17650;SDS011;26663;59.302;18.082;2024-01-30T03:33:19;26.83;;;10.30;;
17650;SDS011;26663;59.302;18.082;2024-01-30T03:36:23;21.80;;;10.10;;
17650;SDS011;26663;59.302;18.082;2024-01-30T03:39:28;21.60;;;9.40;;
17650;SDS011;26663;59.302;18.082;2024-01-30T03:42:32;21.33;;;9.70;;
17650;SDS011;26663;59.302;18.082;2024-01-30T03:45:36;21.10;;;9.80;;
17650;SDS011;26663;59.302;18.082;2024-01-30T03:48:40;18.67;;;9.47;;
17650;SDS011;26663;59.302;18.082;2024-01-30T03:51:44;24.97;;;9.23;;
17650;SDS011;26663;59.302;18.082;2024-01-30T03:54:51;23.37;;;9.40;;
17650;SDS011;26663;59.302;18.082;2024-01-30T03:57:55;23.97;;;8.90;;
17650;SDS011;26663;59.302;18.082;2024-01-30T04:00:59;19.17;;;8.80;;
17650;SDS011;26663;59.302;18.082;2024-01-30T04:04:03;16.07;;;8.27;;
17650;SDS011;26663;59.302;18.082;2024-01-30T04:07:07;18.27;;;8.83;;
17650;SDS011;26663;59.302;18.082;2024-01-30T04:10:13;20.40;;;7.77;;
17650;SDS011;26663;59.302;18.082;2024-01-30T04:13:17;12.80;;;7.97;;
17650;SDS011;26663;59.302;18.082;2024-01-30T04:16:21;13.77;;;7.57;;
17650;SDS011;26663;59.302;18.082;2024-01-30T04:19:25;15.37;;;7.83;;
17650;SDS011;26663;59.302;18.082;2024-01-30T04:22:30;18.93;;;8.30;;
17650;SDS011;26663;59.302;18.082;2024-01-30T04:25:35;15.07;;;8.17;;
17650;SDS011;26663;59.302;18.082;2024-01-30T04:28:41;12.10;;;7.40;;
17650;SDS011;26663;59.302;18.082;2024-01-30T04:31:44;17.53;;;8.67;;
17650;SDS011;26663;59.302;18.082;2024-01-30T04:34:48;19.77;;;7.97;;
17650;SDS011;26663;59.302;18.082;2024-01-30T04:37:52;14.17;;;8.00;;
17650;SDS011;26663;59.302;18.082;2024-01-30T04:40:58;21.13;;;9.00;;
17650;SDS011;26663;59.302;18.082;2024-01-30T04:44:01;18.00;;;9.10;;
17650;SDS011;26663;59.302;18.082;2024-01-30T04:47:06;22.77;;;9.50;;
17650;SDS011;26663;59.302;18.082;2024-01-30T04:50:11;26.13;;;9.90;;
17650;SDS011;26663;59.302;18.082;2024-01-30T04:53:15;23.83;;;9.87;;
17650;SDS011;26663;59.302;18.082;2024-01-30T04:56:20;25.90;;;11.03;;
17650;SDS011;26663;59.302;18.082;2024-01-30T04:59:24;19.57;;;10.00;;
17650;SDS011;26663;59.302;18.082;2024-01-30T05:02:28;17.27;;;10.00;;
17650;SDS011;26663;59.302;18.082;2024-01-30T05:05:32;24.33;;;10.20;;
17650;SDS011;26663;59.302;18.082;2024-01-30T05:08:36;25.20;;;9.77;;
17650;SDS011;26663;59.302;18.082;2024-01-30T05:11:41;24.23;;;10.93;;
17650;SDS011;26663;59.302;18.082;2024-01-30T05:14:45;26.77;;;10.40;;
17650;SDS011;26663;59.302;18.082;2024-01-30T05:17:49;23.90;;;10.07;;
17650;SDS011;26663;59.302;18.082;2024-01-30T05:20:53;18.63;;;9.23;;
17650;SDS011;26663;59.302;18.082;2024-01-30T05:23:57;24.87;;;9.87;;
17650;SDS011;26663;59.302;18.082;2024-01-30T05:27:03;16.63;;;9.57;;
17650;SDS011;26663;59.302;18.082;2024-01-30T05:30:07;15.63;;;8.77;;
17650;SDS011;26663;59.302;18.082;2024-01-30T05:33:12;16.60;;;8.93;;
17650;SDS011;26663;59.302;18.082;2024-01-30T05:36:16;13.73;;;8.83;;
17650;SDS011;26663;59.302;18.082;2024-01-30T05:39:20;13.93;;;8.57;;
17650;SDS011;26663;59.302;18.082;2024-01-30T05:42:25;16.40;;;9.17;;
17650;SDS011;26663;59.302;18.082;2024-01-30T05:45:30;16.53;;;9.37;;
17650;SDS011;26663;59.302;18.082;2024-01-30T05:48:34;13.30;;;8.60;;
17650;SDS011;26663;59.302;18.082;2024-01-30T05:51:38;13.53;;;8.87;;
17650;SDS011;26663;59.302;18.082;2024-01-30T05:54:42;20.87;;;9.03;;
17650;SDS011;26663;59.302;18.082;2024-01-30T05:57:47;20.73;;;9.63;;
17650;SDS011;26663;59.302;18.082;2024-01-30T06:00:51;16.03;;;9.00;;
17650;SDS011;26663;59.302;18.082;2024-01-30T06:03:55;20.10;;;9.20;;
17650;SDS011;26663;59.302;18.082;2024-01-30T06:06:59;18.50;;;9.10;;
17650;SDS011;26663;59.302;18.082;2024-01-30T06:10:05;15.20;;;8.90;;
17650;SDS011;26663;59.302;18.082;2024-01-30T06:13:12;16.13;;;8.40;;
17650;SDS011;26663;59.302;18.082;2024-01-30T06:16:16;14.17;;;7.80;;
17650;SDS011;26663;59.302;18.082;2024-01-30T06:19:22;14.87;;;7.33;;
17650;SDS011;26663;59.302;18.082;2024-01-30T06:22:26;11.80;;;7.10;;
17650;SDS011;26663;59.302;18.082;2024-01-30T06:25:30;16.37;;;8.00;;
17650;SDS011;26663;59.302;18.082;2024-01-30T06:28:35;14.53;;;7.43;;
17650;SDS011;26663;59.302;18.082;2024-01-30T06:31:39;15.97;;;8.17;;
17650;SDS011;26663;59.302;18.082;2024-01-30T06:34:44;15.53;;;8.10;;
17650;SDS011;26663;59.302;18.082;2024-01-30T06:37:48;15.50;;;7.33;;
17650;SDS011;26663;59.302;18.082;2024-01-30T06:40:52;15.43;;;7.30;;
17650;SDS011;26663;59.302;18.082;2024-01-30T06:43:57;14.70;;;7.27;;
17650;SDS011;26663;59.302;18.082;2024-01-30T06:47:01;8.97;;;5.93;;
17650;SDS011;26663;59.302;18.082;2024-01-30T06:50:06;9.97;;;6.10;;
17650;SDS011;26663;59.302;18.082;2024-01-30T06:53:10;11.60;;;6.73;;
17650;SDS011;26663;59.302;18.082;2024-01-30T06:56:14;9.77;;;6.23;;
17650;SDS011;26663;59.302;18.082;2024-01-30T06:59:24;8.47;;;5.80;;
17650;SDS011;26663;59.302;18.082;2024-01-30T07:02:28;11.40;;;6.63;;
17650;SDS011;26663;59.302;18.082;2024-01-30T07:05:32;10.33;;;7.07;;
17650;SDS011;26663;59.302;18.082;2024-01-30T07:08:36;11.10;;;6.60;;
17650;SDS011;26663;59.302;18.082;2024-01-30T07:11:40;9.17;;;5.83;;
17650;SDS011;26663;59.302;18.082;2024-01-30T07:14:46;14.00;;;6.33;;
17650;SDS011;26663;59.302;18.082;2024-01-30T07:17:51;10.13;;;6.33;;
17650;SDS011;26663;59.302;18.082;2024-01-30T07:20:54;13.33;;;6.20;;
17650;SDS011;26663;59.302;18.082;2024-01-30T07:23:58;15.33;;;6.27;;
17650;SDS011;26663;59.302;18.082;2024-01-30T07:27:03;12.67;;;6.10;;
17650;SDS011;26663;59.302;18.082;2024-01-30T07:30:09;10.07;;;5.97;;
17650;SDS011;26663;59.302;18.082;2024-01-30T07:33:13;12.90;;;6.37;;
17650;SDS011;26663;59.302;18.082;2024-01-30T07:36:17;10.07;;;6.20;;
17650;SDS011;26663;59.302;18.082;2024-01-30T07:39:21;10.93;;;6.50;;
17650;SDS011;26663;59.302;18.082;2024-01-30T07:42:25;15.77;;;6.10;;
17650;SDS011;26663;59.302;18.082;2024-01-30T07:45:30;17.50;;;6.27;;
17650;SDS011;26663;59.302;18.082;2024-01-30T07:48:35;12.47;;;6.67;;
17650;SDS011;26663;59.302;18.082;2024-01-30T07:51:39;10.97;;;6.33;;
17650;SDS011;26663;59.302;18.082;2024-01-30T07:54:43;11.17;;;5.90;;
17650;SDS011;26663;59.302;18.082;2024-01-30T07:57:47;11.80;;;6.17;;
17650;SDS011;26663;59.302;18.082;2024-01-30T08:00:55;11.37;;;6.73;;
17650;SDS011;26663;59.302;18.082;2024-01-30T08:04:01;12.83;;;7.27;;
17650;SDS011;26663;59.302;18.082;2024-01-30T08:07:05;10.67;;;6.70;;
17650;SDS011;26663;59.302;18.082;2024-01-30T08:10:11;15.70;;;7.20;;
17650;SDS011;26663;59.302;18.082;2024-01-30T08:13:15;8.97;;;6.20;;
17650;SDS011;26663;59.302;18.082;2024-01-30T08:16:21;12.77;;;6.43;;
17650;SDS011;26663;59.302;18.082;2024-01-30T08:19:25;9.73;;;5.93;;
17650;SDS011;26663;59.302;18.082;2024-01-30T08:22:29;10.87;;;5.77;;
17650;SDS011;26663;59.302;18.082;2024-01-30T08:25:33;14.23;;;6.17;;
17650;SDS011;26663;59.302;18.082;2024-01-30T08:28:38;8.97;;;5.73;;
17650;SDS011;26663;59.302;18.082;2024-01-30T08:31:44;8.03;;;6.17;;
17650;SDS011;26663;59.302;18.082;2024-01-30T08:34:48;13.27;;;6.37;;
17650;SDS011;26663;59.302;18.082;2024-01-30T08:37:52;10.10;;;5.73;;
17650;SDS011;26663;59.302;18.082;2024-01-30T08:40:57;9.13;;;6.03;;
17650;SDS011;26663;59.302;18.082;2024-01-30T08:44:01;10.60;;;6.30;;
17650;SDS011;26663;59.302;18.082;2024-01-30T08:47:06;12.03;;;5.83;;
17650;SDS011;26663;59.302;18.082;2024-01-30T08:50:10;13.70;;;6.13;;
17650;SDS011;26663;59.302;18.082;2024-01-30T08:53:15;10.17;;;6.47;;
17650;SDS011;26663;59.302;18.082;2024-01-30T08:56:18;11.03;;;5.73;;
17650;SDS011;26663;59.302;18.082;2024-01-30T08:59:22;7.60;;;5.50;;
17650;SDS011;26663;59.302;18.082;2024-01-30T09:02:28;9.77;;;6.00;;
17650;SDS011;26663;59.302;18.082;2024-01-30T09:05:32;7.20;;;5.90;;
17650;SDS011;26663;59.302;18.082;2024-01-30T09:08:36;9.00;;;6.00;;
17650;SDS011;26663;59.302;18.082;2024-01-30T09:11:39;9.13;;;6.03;;
17650;SDS011;26663;59.302;18.082;2024-01-30T09:14:43;10.17;;;6.03;;
17650;SDS011;26663;59.302;18.082;2024-01-30T09:17:49;14.13;;;7.07;;
17650;SDS011;26663;59.302;18.082;2024-01-30T09:20:53;11.73;;;6.93;;
17650;SDS011;26663;59.302;18.082;2024-01-30T09:24:01;9.93;;;6.53;;
17650;SDS011;26663;59.302;18.082;2024-01-30T09:27:06;11.83;;;7.10;;
17650;SDS011;26663;59.302;18.082;2024-01-30T09:30:27;11.03;;;7.00;;
17650;SDS011;26663;59.302;18.082;2024-01-30T09:33:33;12.40;;;6.53;;
17650;SDS011;26663;59.302;18.082;2024-01-30T09:36:37;13.10;;;7.30;;
17650;SDS011;26663;59.302;18.082;2024-01-30T09:39:41;15.60;;;7.63;;
17650;SDS011;26663;59.302;18.082;2024-01-30T09:42:45;12.47;;;7.27;;
17650;SDS011;26663;59.302;18.082;2024-01-30T09:45:52;13.80;;;7.23;;
17650;SDS011;26663;59.302;18.082;2024-01-30T09:48:59;11.57;;;6.67;;
17650;SDS011;26663;59.302;18.082;2024-01-30T09:52:04;15.90;;;8.07;;
17650;SDS011;26663;59.302;18.082;2024-01-30T09:55:09;16.77;;;7.37;;
17650;SDS011;26663;59.302;18.082;2024-01-30T09:58:13;17.27;;;8.20;;
17650;SDS011;26663;59.302;18.082;2024-01-30T10:01:17;17.20;;;8.37;;
17650;SDS011;26663;59.302;18.082;2024-01-30T10:04:23;15.20;;;7.70;;
17650;SDS011;26663;59.302;18.082;2024-01-30T10:07:27;15.33;;;7.70;;
17650;SDS011;26663;59.302;18.082;2024-01-30T10:10:32;13.53;;;7.80;;
17650;SDS011;26663;59.302;18.082;2024-01-30T10:13:36;17.23;;;7.93;;
17650;SDS011;26663;59.302;18.082;2024-01-30T10:16:42;16.70;;;8.07;;
17650;SDS011;26663;59.302;18.082;2024-01-30T10:19:49;15.87;;;7.87;;
17650;SDS011;26663;59.302;18.082;2024-01-30T10:22:54;17.60;;;8.40;;
17650;SDS011;26663;59.302;18.082;2024-01-30T10:25:58;14.70;;;7.63;;
17650;SDS011;26663;59.302;18.082;2024-01-30T10:29:01;13.23;;;7.77;;
17650;SDS011;26663;59.302;18.082;2024-01-30T10:32:05;17.67;;;7.97;;
17650;SDS011;26663;59.302;18.082;2024-01-30T10:35:11;20.03;;;8.80;;
17650;SDS011;26663;59.302;18.082;2024-01-30T10:38:15;14.90;;;8.33;;
17650;SDS011;26663;59.302;18.082;2024-01-30T10:41:20;16.37;;;8.73;;
17650;SDS011;26663;59.302;18.082;2024-01-30T10:44:28;15.27;;;8.60;;
17650;SDS011;26663;59.302;18.082;2024-01-30T10:47:34;17.63;;;8.87;;
17650;SDS011;26663;59.302;18.082;2024-01-30T10:50:40;20.27;;;8.53;;
17650;SDS011;26663;59.302;18.082;2024-01-30T10:53:55;17.10;;;8.87;;
17650;SDS011;26663;59.302;18.082;2024-01-30T10:57:00;18.13;;;9.00;;
17650;SDS011;26663;59.302;18.082;2024-01-30T11:00:06;22.47;;;8.83;;
17650;SDS011;26663;59.302;18.082;2024-01-30T11:03:13;19.27;;;8.87;;
17650;SDS011;26663;59.302;18.082;2024-01-30T11:06:19;19.83;;;9.07;;
17650;SDS011;26663;59.302;18.082;2024-01-30T11:09:25;19.97;;;9.17;;
17650;SDS011;26663;59.302;18.082;2024-01-30T11:12:33;20.33;;;9.03;;
17650;SDS011;26663;59.302;18.082;2024-01-30T11:15:43;21.67;;;9.40;;
17650;SDS011;26663;59.302;18.082;2024-01-30T11:18:49;17.60;;;9.03;;
17650;SDS011;26663;59.302;18.082;2024-01-30T11:21:56;20.30;;;9.50;;
17650;SDS011;26663;59.302;18.082;2024-01-30T11:25:01;19.10;;;9.63;;
17650;SDS011;26663;59.302;18.082;2024-01-30T11:28:05;19.40;;;9.57;;
17650;SDS011;26663;59.302;18.082;2024-01-30T11:31:18;23.67;;;10.07;;
17650;SDS011;26663;59.302;18.082;2024-01-30T11:34:22;24.90;;;10.23;;
17650;SDS011;26663;59.302;18.082;2024-01-30T11:37:28;22.50;;;9.87;;
17650;SDS011;26663;59.302;18.082;2024-01-30T11:40:32;25.23;;;10.97;;
17650;SDS011;26663;59.302;18.082;2024-01-30T11:43:38;26.60;;;10.07;;
17650;SDS011;26663;59.302;18.082;2024-01-30T11:46:42;24.10;;;10.87;;
17650;SDS011;26663;59.302;18.082;2024-01-30T11:49:46;26.33;;;10.37;;
17650;SDS011;26663;59.302;18.082;2024-01-30T11:52:52;20.90;;;10.57;;
17650;SDS011;26663;59.302;18.082;2024-01-30T11:55:58;22.73;;;9.93;;
17650;SDS011;26663;59.302;18.082;2024-01-30T11:59:02;26.60;;;11.30;;
17650;SDS011;26663;59.302;18.082;2024-01-30T12:02:06;24.43;;;10.77;;
17650;SDS011;26663;59.302;18.082;2024-01-30T12:05:10;19.43;;;10.33;;
17650;SDS011;26663;59.302;18.082;2024-01-30T12:08:16;22.70;;;10.33;;
17650;SDS011;26663;59.302;18.082;2024-01-30T12:11:20;22.47;;;10.37;;
17650;SDS011;26663;59.302;18.082;2024-01-30T12:14:24;22.23;;;9.80;;
17650;SDS011;26663;59.302;18.082;2024-01-30T12:17:29;18.73;;;10.40;;
17650;SDS011;26663;59.302;18.082;2024-01-30T12:20:34;18.27;;;10.32;;
17650;SDS011;26663;59.302;18.082;2024-01-30T12:23:40;21.53;;;11.10;;
17650;SDS011;26663;59.302;18.082;2024-01-30T12:26:44;21.67;;;10.60;;
17650;SDS011;26663;59.302;18.082;2024-01-30T12:29:48;20.50;;;10.37;;
17650;SDS011;26663;59.302;18.082;2024-01-30T12:32:52;19.63;;;10.20;;
17650;SDS011;26663;59.302;18.082;2024-01-30T12:35:56;20.00;;;10.30;;
17650;SDS011;26663;59.302;18.082;2024-01-30T12:39:06;30.13;;;10.63;;
17650;SDS011;26663;59.302;18.082;2024-01-30T12:42:11;16.70;;;10.07;;
17650;SDS011;26663;59.302;18.082;2024-01-30T12:45:14;17.23;;;9.80;;
17650;SDS011;26663;59.302;18.082;2024-01-30T12:48:22;18.37;;;11.00;;
17650;SDS011;26663;59.302;18.082;2024-01-30T12:51:27;18.63;;;9.60;;
17650;SDS011;26663;59.302;18.082;2024-01-30T12:54:32;19.77;;;10.73;;
17650;SDS011;26663;59.302;18.082;2024-01-30T12:57:36;19.83;;;10.23;;
17650;SDS011;26663;59.302;18.082;2024-01-30T13:00:41;20.20;;;9.77;;
17650;SDS011;26663;59.302;18.082;2024-01-30T13:03:45;20.73;;;10.20;;
17650;SDS011;26663;59.302;18.082;2024-01-30T13:06:50;23.07;;;10.87;;
17650;SDS011;26663;59.302;18.082;2024-01-30T13:09:56;20.97;;;10.40;;
17650;SDS011;26663;59.302;18.082;2024-01-30T13:13:04;25.30;;;10.80;;
17650;SDS011;26663;59.302;18.082;2024-01-30T13:16:18;20.67;;;10.23;;
17650;SDS011;26663;59.302;18.082;2024-01-30T13:19:22;21.80;;;9.77;;
17650;SDS011;26663;59.302;18.082;2024-01-30T13:22:26;19.43;;;9.07;;
17650;SDS011;26663;59.302;18.082;2024-01-30T13:25:31;17.43;;;9.20;;
17650;SDS011;26663;59.302;18.082;2024-01-30T13:28:35;19.03;;;9.27;;
17650;SDS011;26663;59.302;18.082;2024-01-30T13:31:39;19.33;;;8.63;;
17650;SDS011;26663;59.302;18.082;2024-01-30T13:34:43;12.87;;;8.10;;
17650;SDS011;26663;59.302;18.082;2024-01-30T13:37:47;13.33;;;7.63;;
17650;SDS011;26663;59.302;18.082;2024-01-30T13:40:53;12.37;;;7.90;;
17650;SDS011;26663;59.302;18.082;2024-01-30T13:43:57;11.27;;;7.60;;
17650;SDS011;26663;59.302;18.082;2024-01-30T13:47:01;11.33;;;7.97;;
17650;SDS011;26663;59.302;18.082;2024-01-30T13:50:05;11.73;;;7.17;;
17650;SDS011;26663;59.302;18.082;2024-01-30T13:53:10;16.90;;;7.87;;
17650;SDS011;26663;59.302;18.082;2024-01-30T13:56:17;12.37;;;7.97;;
17650;SDS011;26663;59.302;18.082;2024-01-30T13:59:21;10.93;;;7.40;;
17650;SDS011;26663;59.302;18.082;2024-01-30T14:02:26;12.63;;;7.73;;
17650;SDS011;26663;59.302;18.082;2024-01-30T14:05:30;11.27;;;7.13;;
17650;SDS011;26663;59.302;18.082;2024-01-30T14:08:34;14.70;;;8.10;;
17650;SDS011;26663;59.302;18.082;2024-01-30T14:11:40;11.60;;;7.23;;
17650;SDS011;26663;59.302;18.082;2024-01-30T14:14:44;10.67;;;6.90;;
17650;SDS011;26663;59.302;18.082;2024-01-30T14:17:48;14.00;;;7.80;;
17650;SDS011;26663;59.302;18.082;2024-01-30T14:20:52;10.93;;;7.80;;
17650;SDS011;26663;59.302;18.082;2024-01-30T14:23:56;12.37;;;8.47;;
17650;SDS011;26663;59.302;18.082;2024-01-30T14:27:02;12.10;;;7.80;;
17650;SDS011;26663;59.302;18.082;2024-01-30T14:30:06;15.63;;;8.10;;
17650;SDS011;26663;59.302;18.082;2024-01-30T14:33:14;10.70;;;7.43;;
17650;SDS011;26663;59.302;18.082;2024-01-30T14:36:18;13.73;;;7.87;;
17650;SDS011;26663;59.302;18.082;2024-01-30T14:39:22;16.63;;;8.20;;
17650;SDS011;26663;59.302;18.082;2024-01-30T14:42:28;13.27;;;7.80;;
17650;SDS011;26663;59.302;18.082;2024-01-30T14:45:33;13.97;;;7.73;;
17650;SDS011;26663;59.302;18.082;2024-01-30T14:48:37;13.80;;;8.37;;
17650;SDS011;26663;59.302;18.082;2024-01-30T14:51:41;12.73;;;7.93;;
17650;SDS011;26663;59.302;18.082;2024-01-30T14:54:45;11.83;;;7.80;;
17650;SDS011;26663;59.302;18.082;2024-01-30T14:57:50;14.67;;;8.83;;
17650;SDS011;26663;59.302;18.082;2024-01-30T15:00:54;15.57;;;8.63;;
17650;SDS011;26663;59.302;18.082;2024-01-30T15:03:59;14.47;;;9.10;;
17650;SDS011;26663;59.302;18.082;2024-01-30T15:07:03;13.57;;;8.23;;
17650;SDS011;26663;59.302;18.082;2024-01-30T15:10:07;11.90;;;8.50;;
17650;SDS011;26663;59.302;18.082;2024-01-30T15:13:15;14.60;;;8.37;;
17650;SDS011;26663;59.302;18.082;2024-01-30T15:16:19;13.20;;;8.23;;
17650;SDS011;26663;59.302;18.082;2024-01-30T15:19:23;14.20;;;8.40;;
17650;SDS011;26663;59.302;18.082;2024-01-30T15:22:28;14.07;;;8.17;;
17650;SDS011;26663;59.302;18.082;2024-01-30T15:25:32;16.57;;;9.07;;
17650;SDS011;26663;59.302;18.082;2024-01-30T15:28:37;14.67;;;8.70;;
17650;SDS011;26663;59.302;18.082;2024-01-30T15:31:42;11.83;;;8.30;;
17650;SDS011;26663;59.302;18.082;2024-01-30T15:34:46;12.73;;;8.37;;
17650;SDS011;26663;59.302;18.082;2024-01-30T15:37:50;11.00;;;8.00;;
17650;SDS011;26663;59.302;18.082;2024-01-30T15:40:54;11.53;;;8.00;;
17650;SDS011;26663;59.302;18.082;2024-01-30T15:44:00;13.77;;;8.23;;
17650;SDS011;26663;59.302;18.082;2024-01-30T15:47:04;11.87;;;8.00;;
17650;SDS011;26663;59.302;18.082;2024-01-30T15:50:08;13.87;;;8.07;;
17650;SDS011;26663;59.302;18.082;2024-01-30T15:53:14;11.57;;;7.23;;
17650;SDS011;26663;59.302;18.082;2024-01-30T15:56:18;10.10;;;7.47;;
17650;SDS011;26663;59.302;18.082;2024-01-30T15:59:24;10.60;;;7.10;;
17650;SDS011;26663;59.302;18.082;2024-01-30T16:02:29;9.87;;;7.63;;
17650;SDS011;26663;59.302;18.082;2024-01-30T16:05:33;13.07;;;8.20;;
17650;SDS011;26663;59.302;18.082;2024-01-30T16:08:37;12.53;;;8.07;;
17650;SDS011;26663;59.302;18.082;2024-01-30T16:11:41;10.50;;;7.53;;
17650;SDS011;26663;59.302;18.082;2024-01-30T16:14:46;12.13;;;7.93;;
17650;SDS011;26663;59.302;18.082;2024-01-30T16:17:50;14.33;;;7.83;;
17650;SDS011;26663;59.302;18.082;2024-01-30T16:20:54;10.87;;;7.40;;
17650;SDS011;26663;59.302;18.082;2024-01-30T16:23:59;10.27;;;7.23;;
17650;SDS011;26663;59.302;18.082;2024-01-30T16:27:03;16.80;;;7.40;;
17650;SDS011;26663;59.302;18.082;2024-01-30T16:30:09;11.93;;;7.47;;
17650;SDS011;26663;59.302;18.082;2024-01-30T16:33:14;10.73;;;6.53;;
17650;SDS011;26663;59.302;18.082;2024-01-30T16:36:20;11.17;;;6.83;;
17650;SDS011;26663;59.302;18.082;2024-01-30T16:39:24;10.97;;;7.37;;
17650;SDS011;26663;59.302;18.082;2024-01-30T16:42:28;11.73;;;6.33;;
17650;SDS011;26663;59.302;18.082;2024-01-30T16:45:33;14.73;;;6.80;;
17650;SDS011;26663;59.302;18.082;2024-01-30T16:48:37;10.17;;;6.60;;
17650;SDS011;26663;59.302;18.082;2024-01-30T16:51:41;8.87;;;6.80;;
17650;SDS011;26663;59.302;18.082;2024-01-30T16:54:45;18.97;;;8.20;;
17650;SDS011;26663;59.302;18.082;2024-01-30T16:57:49;14.83;;;7.60;;
17650;SDS011;26663;59.302;18.082;2024-01-30T17:00:54;15.07;;;7.07;;
17650;SDS011;26663;59.302;18.082;2024-01-30T17:03:58;13.40;;;7.93;;
17650;SDS011;26663;59.302;18.082;2024-01-30T17:07:02;15.43;;;8.07;;
17650;SDS011;26663;59.302;18.082;2024-01-30T17:10:07;15.30;;;7.90;;
17650;SDS011;26663;59.302;18.082;2024-01-30T17:13:11;20.73;;;8.53;;
17650;SDS011;26663;59.302;18.082;2024-01-30T17:16:17;15.23;;;8.40;;
17650;SDS011;26663;59.302;18.082;2024-01-30T17:19:23;13.30;;;7.07;;
17650;SDS011;26663;59.302;18.082;2024-01-30T17:22:27;13.87;;;7.83;;
17650;SDS011;26663;59.302;18.082;2024-01-30T17:25:31;17.03;;;8.33;;
17650;SDS011;26663;59.302;18.082;2024-01-30T17:28:35;11.83;;;7.87;;
17650;SDS011;26663;59.302;18.082;2024-01-30T17:31:42;10.80;;;7.50;;
17650;SDS011;26663;59.302;18.082;2024-01-30T17:34:47;14.90;;;7.87;;
17650;SDS011;26663;59.302;18.082;2024-01-30T17:37:51;12.27;;;7.83;;
17650;SDS011;26663;59.302;18.082;2024-01-30T17:40:55;15.30;;;7.83;;
17650;SDS011;26663;59.302;18.082;2024-01-30T17:44:12;19.37;;;8.53;;
17650;SDS011;26663;59.302;18.082;2024-01-30T17:47:18;13.70;;;8.63;;
17650;SDS011;26663;59.302;18.082;2024-01-30T17:50:22;17.63;;;8.37;;
17650;SDS011;26663;59.302;18.082;2024-01-30T17:53:26;16.90;;;8.20;;
17650;SDS011;26663;59.302;18.082;2024-01-30T17:56:30;15.73;;;8.47;;
17650;SDS011;26663;59.302;18.082;2024-01-30T17:59:35;18.23;;;9.60;;